Time;durP1;ratioP1;P1;durP2;ratioP2;P2;SDS_P1;SDS_P2;PMS_P1;PMS_P2;Temp;Humidity;BMP_temperature;BMP_pressure;BME280_temperature;BME280_humidity;BME280_pressure;Samples;Min_cycle;Max_cycle;Signal;HPM_P1;HPM_P2
2022/10/15 00:00:25;;;;;;;1.00;1.00;;;;;;;;;;1920374;75;26265;-92
2022/10/15 00:02:53;;;;;;;1.10;1.10;;;;;;;;;;1921911;75;26211;-91
2022/10/15 00:05:21;;;;;;;1.10;1.10;;;;;;;;;;1897555;73;26364;-91
2022/10/15 00:07:48;;;;;;;1.00;1.00;;;;;;;;;;1920142;73;26239;-91
2022/10/15 00:10:16;;;;;;;1.10;1.10;;;;;;;;;;1921291;75;26756;-91
2022/10/15 00:12:43;;;;;;;1.17;1.17;;;;;;;;;;1919718;73;26325;-90
2022/10/15 00:15:11;;;;;;;1.00;1.00;;;;;;;;;;1918806;73;26651;-89
2022/10/15 00:17:38;;;;;;;1.10;1.10;;;;;;;;;;1894658;75;26300;-90
2022/10/15 00:20:07;;;;;;;1.00;1.00;;;;;;;;;;1928825;73;26231;-89
2022/10/15 00:22:34;;;;;;;1.00;1.00;;;;;;;;;;1900024;73;26734;-89
2022/10/15 00:25:02;;;;;;;1.00;1.00;;;;;;;;;;1904775;73;26260;-89
2022/10/15 00:27:29;;;;;;;0.93;0.93;;;;;;;;;;1909362;73;26230;-89
2022/10/15 00:29:58;;;;;;;0.90;0.90;;;;;;;;;;1918517;73;27511;-89
2022/10/15 00:32:25;;;;;;;1.00;1.00;;;;;;;;;;1900730;73;26270;-89
2022/10/15 00:34:53;;;;;;;1.00;1.00;;;;;;;;;;1919917;75;26190;-89
2022/10/15 00:37:20;;;;;;;0.90;0.90;;;;;;;;;;1904548;74;26225;-89
2022/10/15 00:39:47;;;;;;;1.00;1.00;;;;;;;;;;1912307;74;26284;-89
2022/10/15 00:42:15;;;;;;;1.12;1.12;;;;;;;;;;1927912;73;26605;-89
2022/10/15 00:44:53;;;;;;;0.90;0.90;;;;;;;;;;1948090;73;26268;-89
2022/10/15 00:47:21;;;;;;;1.02;1.02;;;;;;;;;;1920335;73;26179;-89
2022/10/15 00:49:50;;;;;;;0.98;0.98;;;;;;;;;;1919585;74;26359;-88
2022/10/15 00:52:25;;;;;;;0.90;0.90;;;;;;;;;;1931286;73;26251;-88
2022/10/15 00:54:56;;;;;;;0.90;0.90;;;;;;;;;;1919332;73;26744;-89
2022/10/15 00:57:24;;;;;;;1.10;1.10;;;;;;;;;;1889819;74;26249;-89
2022/10/15 00:59:53;;;;;;;1.00;1.00;;;;;;;;;;1919829;75;26800;-90
2022/10/15 01:02:21;;;;;;;1.00;1.00;;;;;;;;;;1930090;73;26678;-90
2022/10/15 01:04:48;;;;;;;0.88;0.88;;;;;;;;;;1929259;73;26301;-89
2022/10/15 01:07:15;;;;;;;1.00;1.00;;;;;;;;;;1919505;75;26244;-90
2022/10/15 01:09:43;;;;;;;0.90;0.90;;;;;;;;;;1919861;74;26337;-90
2022/10/15 01:12:11;;;;;;;1.00;1.00;;;;;;;;;;1924987;73;26344;-90
2022/10/15 01:14:46;;;;;;;1.00;1.00;;;;;;;;;;1933467;73;26304;-90
2022/10/15 01:17:15;;;;;;;0.90;0.90;;;;;;;;;;1918891;74;26652;-90
2022/10/15 01:19:59;;;;;;;1.00;1.00;;;;;;;;;;1919156;73;26789;-90
2022/10/15 01:22:44;;;;;;;0.90;0.90;;;;;;;;;;1919931;75;26246;-89
2022/10/15 01:25:19;;;;;;;1.07;1.07;;;;;;;;;;1920148;75;26746;-90
2022/10/15 01:27:48;;;;;;;0.90;0.90;;;;;;;;;;1887011;76;26304;-90
2022/10/15 01:30:17;;;;;;;1.00;1.00;;;;;;;;;;1907916;75;26194;-90
2022/10/15 01:32:49;;;;;;;1.02;1.02;;;;;;;;;;1919684;74;26241;-90
2022/10/15 01:35:17;;;;;;;1.15;1.15;;;;;;;;;;1918668;73;26268;-93
2022/10/15 01:37:49;;;;;;;0.90;0.90;;;;;;;;;;1924464;73;26247;-90
2022/10/15 01:40:24;;;;;;;1.10;1.10;;;;;;;;;;1915027;73;26283;-91
2022/10/15 01:42:58;;;;;;;0.95;0.95;;;;;;;;;;1913629;75;26512;-90
2022/10/15 01:45:30;;;;;;;0.88;0.88;;;;;;;;;;1900927;75;26284;-90
2022/10/15 01:47:59;;;;;;;0.90;0.90;;;;;;;;;;1830343;76;26346;-90
2022/10/15 01:50:27;;;;;;;0.90;0.90;;;;;;;;;;1847715;76;26280;-90
2022/10/15 01:52:55;;;;;;;0.90;0.90;;;;;;;;;;1872772;76;26336;-91
2022/10/15 01:55:24;;;;;;;1.07;1.07;;;;;;;;;;1872771;76;26855;-90
2022/10/15 01:57:51;;;;;;;0.95;0.95;;;;;;;;;;1864306;76;26396;-90
2022/10/15 02:00:19;;;;;;;0.80;0.80;;;;;;;;;;1878728;76;26732;-90
2022/10/15 02:02:46;;;;;;;0.90;0.90;;;;;;;;;;1882821;75;26352;-90
2022/10/15 02:05:15;;;;;;;0.95;0.95;;;;;;;;;;1878043;76;26837;-90
2022/10/15 02:07:59;;;;;;;0.90;0.90;;;;;;;;;;1877968;74;26705;-90
2022/10/15 02:10:45;;;;;;;0.90;0.90;;;;;;;;;;1877964;76;26839;-90
2022/10/15 02:13:16;;;;;;;1.00;1.00;;;;;;;;;;1884274;75;26783;-89
2022/10/15 02:16:00;;;;;;;0.90;0.90;;;;;;;;;;1873833;76;26757;-90
2022/10/15 02:18:38;;;;;;;0.90;0.90;;;;;;;;;;1879139;76;26767;-92
2022/10/15 02:21:07;;;;;;;0.90;0.90;;;;;;;;;;1859535;76;26253;-90
2022/10/15 02:23:38;;;;;;;1.10;1.00;;;;;;;;;;1877191;75;26275;-90
2022/10/15 02:26:07;;;;;;;1.00;1.00;;;;;;;;;;1874631;76;26319;-90
2022/10/15 02:28:36;;;;;;;0.98;0.98;;;;;;;;;;1871389;76;26765;-90
2022/10/15 02:31:04;;;;;;;0.80;0.80;;;;;;;;;;1879642;76;26726;-90
2022/10/15 02:33:33;;;;;;;0.80;0.80;;;;;;;;;;1866308;76;26288;-90
2022/10/15 02:36:00;;;;;;;0.90;0.90;;;;;;;;;;1859448;76;26279;-90
2022/10/15 02:38:30;;;;;;;0.80;0.80;;;;;;;;;;1874737;76;26356;-90
2022/10/15 02:40:57;;;;;;;0.90;0.90;;;;;;;;;;1879790;75;26222;-89
2022/10/15 02:43:24;;;;;;;0.90;0.90;;;;;;;;;;1877113;76;26274;-90
2022/10/15 02:45:52;;;;;;;0.90;0.90;;;;;;;;;;1907156;73;26309;-90
2022/10/15 02:48:19;;;;;;;0.90;0.90;;;;;;;;;;1921540;73;26282;-90
2022/10/15 02:50:46;;;;;;;0.80;0.80;;;;;;;;;;1916319;73;26655;-89
2022/10/15 02:53:13;;;;;;;0.70;0.70;;;;;;;;;;1924372;73;26282;-89
2022/10/15 02:55:41;;;;;;;0.70;0.70;;;;;;;;;;1919378;73;26249;-89
2022/10/15 02:58:08;;;;;;;0.75;0.75;;;;;;;;;;1919127;73;26316;-90
2022/10/15 03:00:35;;;;;;;0.70;0.70;;;;;;;;;;1933615;73;26612;-90
2022/10/15 03:03:03;;;;;;;0.80;0.80;;;;;;;;;;1921287;73;26307;-90
2022/10/15 03:05:30;;;;;;;0.72;0.72;;;;;;;;;;1946315;73;26227;-88
2022/10/15 03:07:58;;;;;;;0.80;0.80;;;;;;;;;;1919477;73;26620;-90
2022/10/15 03:10:26;;;;;;;0.70;0.70;;;;;;;;;;1919875;75;26226;-88
2022/10/15 03:12:53;;;;;;;0.75;0.75;;;;;;;;;;1906779;73;26172;-90
2022/10/15 03:15:20;;;;;;;0.70;0.70;;;;;;;;;;1952827;73;26172;-89
2022/10/15 03:17:48;;;;;;;0.70;0.70;;;;;;;;;;1914931;73;26252;-88
2022/10/15 03:20:15;;;;;;;0.80;0.80;;;;;;;;;;1925178;73;26179;-89
2022/10/15 03:22:42;;;;;;;0.70;0.70;;;;;;;;;;1919606;73;26757;-87
2022/10/15 03:25:10;;;;;;;0.80;0.80;;;;;;;;;;1921738;73;26944;-89
2022/10/15 03:27:37;;;;;;;0.70;0.70;;;;;;;;;;1937227;73;26323;-89
2022/10/15 03:30:04;;;;;;;0.65;0.65;;;;;;;;;;1919636;73;26248;-90
2022/10/15 03:32:32;;;;;;;0.80;0.80;;;;;;;;;;1919671;75;26241;-91
2022/10/15 03:34:59;;;;;;;0.75;0.75;;;;;;;;;;1937429;73;26302;-90
2022/10/15 03:37:26;;;;;;;0.70;0.70;;;;;;;;;;1921950;73;26247;-90
2022/10/15 03:39:54;;;;;;;0.80;0.80;;;;;;;;;;1919197;75;26230;-91
2022/10/15 03:42:21;;;;;;;0.70;0.70;;;;;;;;;;1918635;75;26186;-90
2022/10/15 03:44:48;;;;;;;0.62;0.62;;;;;;;;;;1918909;75;26195;-89
2022/10/15 03:47:15;;;;;;;0.70;0.70;;;;;;;;;;1882450;74;26289;-88
2022/10/15 03:49:43;;;;;;;0.78;0.78;;;;;;;;;;1876650;74;26284;-88
2022/10/15 03:52:10;;;;;;;0.70;0.70;;;;;;;;;;1851244;75;26270;-88
2022/10/15 03:54:37;;;;;;;0.60;0.60;;;;;;;;;;1906313;75;26235;-88
2022/10/15 03:57:05;;;;;;;0.70;0.70;;;;;;;;;;1884094;76;27009;-91
2022/10/15 03:59:32;;;;;;;0.78;0.78;;;;;;;;;;1883818;76;26247;-89
2022/10/15 04:02:00;;;;;;;0.82;0.82;;;;;;;;;;1883799;76;26724;-89
2022/10/15 04:04:27;;;;;;;0.70;0.70;;;;;;;;;;1883843;75;26358;-89
2022/10/15 04:06:54;;;;;;;0.90;0.90;;;;;;;;;;1862392;75;26526;-89
2022/10/15 04:09:22;;;;;;;0.70;0.70;;;;;;;;;;1876246;75;26785;-89
2022/10/15 04:11:49;;;;;;;0.62;0.62;;;;;;;;;;1868217;75;26823;-88
2022/10/15 04:14:18;;;;;;;0.72;0.72;;;;;;;;;;1884267;75;26676;-89
2022/10/15 04:16:45;;;;;;;0.70;0.70;;;;;;;;;;1888963;75;26270;-88
2022/10/15 04:19:12;;;;;;;0.72;0.72;;;;;;;;;;1883653;75;26633;-89
2022/10/15 04:21:40;;;;;;;0.80;0.80;;;;;;;;;;1883402;74;26259;-89
2022/10/15 04:24:07;;;;;;;0.60;0.60;;;;;;;;;;1889130;74;26232;-89
2022/10/15 04:26:34;;;;;;;0.60;0.60;;;;;;;;;;1868535;77;26255;-89
2022/10/15 04:29:02;;;;;;;0.80;0.80;;;;;;;;;;1868622;77;26251;-90
2022/10/15 04:31:29;;;;;;;0.72;0.72;;;;;;;;;;1868434;77;26251;-90
2022/10/15 04:33:56;;;;;;;0.70;0.70;;;;;;;;;;1868641;75;25862;-89
2022/10/15 04:36:23;;;;;;;0.60;0.60;;;;;;;;;;1882184;74;26760;-89
2022/10/15 04:38:51;;;;;;;0.70;0.70;;;;;;;;;;1883290;75;26247;-88
2022/10/15 04:41:19;;;;;;;0.60;0.60;;;;;;;;;;1881790;75;26711;-89
2022/10/15 04:43:46;;;;;;;0.70;0.70;;;;;;;;;;1883774;75;26778;-89
2022/10/15 04:46:13;;;;;;;0.68;0.68;;;;;;;;;;1889355;75;26301;-88
2022/10/15 04:48:41;;;;;;;0.60;0.60;;;;;;;;;;1912451;75;26250;-88
2022/10/15 04:51:10;;;;;;;0.60;0.60;;;;;;;;;;1910487;75;26291;-88
2022/10/15 04:53:37;;;;;;;0.57;0.57;;;;;;;;;;1912441;75;26270;-89
2022/10/15 04:56:06;;;;;;;0.65;0.65;;;;;;;;;;1910985;75;26215;-87
2022/10/15 04:58:34;;;;;;;0.60;0.60;;;;;;;;;;1912331;75;26237;-88
2022/10/15 05:01:01;;;;;;;0.60;0.60;;;;;;;;;;1896501;75;26651;-89
2022/10/15 05:03:29;;;;;;;0.60;0.60;;;;;;;;;;1912507;75;26312;-87
2022/10/15 05:06:10;;;;;;;0.62;0.62;;;;;;;;;;1904888;75;26721;-88
2022/10/15 05:08:40;;;;;;;0.65;0.65;;;;;;;;;;1901334;75;26494;-87
2022/10/15 05:11:11;;;;;;;0.68;0.68;;;;;;;;;;1911183;75;26294;-85
2022/10/15 05:13:39;;;;;;;0.60;0.60;;;;;;;;;;1902140;75;26813;-87
2022/10/15 05:16:17;;;;;;;0.80;0.80;;;;;;;;;;1908832;75;26175;-88
2022/10/15 05:18:46;;;;;;;0.70;0.70;;;;;;;;;;1908017;75;26322;-88
2022/10/15 05:21:13;;;;;;;0.70;0.70;;;;;;;;;;1908826;75;26669;-89
2022/10/15 05:23:41;;;;;;;0.60;0.60;;;;;;;;;;1909390;75;26212;-89
2022/10/15 05:26:09;;;;;;;0.60;0.60;;;;;;;;;;1907861;75;26778;-90
2022/10/15 05:28:37;;;;;;;0.85;0.70;;;;;;;;;;1909694;74;26724;-89
2022/10/15 05:31:08;;;;;;;0.60;0.60;;;;;;;;;;1909122;75;26230;-88
2022/10/15 05:33:35;;;;;;;0.70;0.70;;;;;;;;;;1907549;75;25497;-92
2022/10/15 05:36:22;;;;;;;0.60;0.60;;;;;;;;;;1908854;75;26218;-89
2022/10/15 05:38:50;;;;;;;0.70;0.70;;;;;;;;;;1902118;75;26234;-89
2022/10/15 05:41:18;;;;;;;0.60;0.60;;;;;;;;;;1906856;75;26297;-89
2022/10/15 05:43:49;;;;;;;0.70;0.70;;;;;;;;;;1910520;75;26238;-89
2022/10/15 05:46:17;;;;;;;0.75;0.75;;;;;;;;;;1908904;74;26296;-88
2022/10/15 05:48:49;;;;;;;0.70;0.70;;;;;;;;;;1903214;75;26740;-90
2022/10/15 05:51:18;;;;;;;0.80;0.80;;;;;;;;;;1901972;74;26292;-91
2022/10/15 05:53:45;;;;;;;0.85;0.85;;;;;;;;;;1900219;75;26285;-91
2022/10/15 05:56:13;;;;;;;0.70;0.70;;;;;;;;;;1902873;74;26241;-90
2022/10/15 05:58:41;;;;;;;0.90;0.90;;;;;;;;;;1893459;75;26726;-90
2022/10/15 06:01:09;;;;;;;0.70;0.70;;;;;;;;;;1904221;75;26788;-90
2022/10/15 06:03:37;;;;;;;0.80;0.80;;;;;;;;;;1898219;75;26270;-89
2022/10/15 06:06:05;;;;;;;0.90;0.90;;;;;;;;;;1898878;75;26294;-90
2022/10/15 06:08:32;;;;;;;0.85;0.85;;;;;;;;;;1903445;75;26243;-88
2022/10/15 06:11:03;;;;;;;0.82;0.82;;;;;;;;;;1896538;75;26208;-89
2022/10/15 06:13:30;;;;;;;1.60;1.00;;;;;;;;;;1903209;75;26270;-89
2022/10/15 06:15:57;;;;;;;1.07;0.90;;;;;;;;;;1894784;75;26300;-88
2022/10/15 06:18:24;;;;;;;0.98;0.98;;;;;;;;;;1903034;75;26668;-89
2022/10/15 06:20:52;;;;;;;2.72;1.10;;;;;;;;;;1902565;75;26224;-89
2022/10/15 06:23:20;;;;;;;0.93;0.93;;;;;;;;;;1903121;75;26284;-89
2022/10/15 06:25:50;;;;;;;1.30;0.98;;;;;;;;;;1903360;75;26266;-89
2022/10/15 06:28:17;;;;;;;1.00;1.00;;;;;;;;;;1903498;75;26239;-90
2022/10/15 06:30:44;;;;;;;1.00;1.00;;;;;;;;;;1902464;75;26285;-91
2022/10/15 06:33:12;;;;;;;1.52;1.10;;;;;;;;;;1902468;75;26681;-89
2022/10/15 06:35:40;;;;;;;1.05;0.93;;;;;;;;;;1902592;75;26252;-88
2022/10/15 06:38:07;;;;;;;1.45;1.30;;;;;;;;;;1891055;75;26232;-89
2022/10/15 06:40:34;;;;;;;3.85;1.20;;;;;;;;;;1900282;75;26216;-89
2022/10/15 06:43:06;;;;;;;2.40;1.20;;;;;;;;;;1898983;75;26189;-89
2022/10/15 06:45:35;;;;;;;2.22;1.42;;;;;;;;;;1887950;75;26262;-90
2022/10/15 06:48:03;;;;;;;1.75;1.20;;;;;;;;;;1865321;77;26363;-90
2022/10/15 06:50:35;;;;;;;4.83;1.77;;;;;;;;;;1862034;76;26650;-90
2022/10/15 06:53:03;;;;;;;3.15;1.77;;;;;;;;;;1865794;77;26786;-90
2022/10/15 06:55:30;;;;;;;4.85;1.70;;;;;;;;;;1866931;75;26241;-88
2022/10/15 06:57:58;;;;;;;5.80;1.70;;;;;;;;;;1881614;76;26775;-89
2022/10/15 07:00:26;;;;;;;3.80;1.40;;;;;;;;;;1880646;76;26242;-90
2022/10/15 07:02:53;;;;;;;2.12;1.60;;;;;;;;;;1860864;76;26249;-89
2022/10/15 07:05:21;;;;;;;3.05;1.65;;;;;;;;;;1881691;75;26245;-92
2022/10/15 07:07:52;;;;;;;6.80;1.92;;;;;;;;;;1869843;75;26300;-91
2022/10/15 07:10:19;;;;;;;3.62;1.90;;;;;;;;;;1893690;75;26237;-90
2022/10/15 07:12:46;;;;;;;4.47;1.98;;;;;;;;;;1880932;76;26337;-89
2022/10/15 07:15:14;;;;;;;12.55;1.87;;;;;;;;;;1882134;75;26237;-90
2022/10/15 07:17:52;;;;;;;4.15;1.72;;;;;;;;;;1880755;75;26808;-89
2022/10/15 07:20:19;;;;;;;3.27;1.60;;;;;;;;;;1849753;75;27516;-89
2022/10/15 07:22:47;;;;;;;1.80;1.70;;;;;;;;;;1868705;76;26310;-90
2022/10/15 07:25:15;;;;;;;3.77;2.00;;;;;;;;;;1847340;76;26724;-92
2022/10/15 07:27:42;;;;;;;5.25;2.00;;;;;;;;;;1897393;75;26384;-90
2022/10/15 07:30:10;;;;;;;4.30;2.02;;;;;;;;;;1860671;76;26236;-89
2022/10/15 07:32:37;;;;;;;2.33;1.70;;;;;;;;;;1846834;77;26274;-91
2022/10/15 07:35:04;;;;;;;4.40;1.95;;;;;;;;;;1843371;77;26242;-89
2022/10/15 07:37:32;;;;;;;3.85;1.87;;;;;;;;;;1836682;78;26718;-90
2022/10/15 07:39:59;;;;;;;3.00;1.80;;;;;;;;;;1833146;78;26752;-90
2022/10/15 07:42:26;;;;;;;2.47;1.77;;;;;;;;;;1819468;78;26724;-90
2022/10/15 07:44:54;;;;;;;2.02;1.70;;;;;;;;;;1813432;78;26290;-93
2022/10/15 07:47:21;;;;;;;3.35;1.57;;;;;;;;;;1816630;76;26303;-90
2022/10/15 07:49:48;;;;;;;2.65;1.60;;;;;;;;;;1816621;77;26631;-89
2022/10/15 07:52:15;;;;;;;2.72;1.60;;;;;;;;;;1891503;75;26234;-89
2022/10/15 07:54:43;;;;;;;4.42;1.90;;;;;;;;;;1899718;75;26376;-89
2022/10/15 07:57:10;;;;;;;1.72;1.47;;;;;;;;;;1910294;75;26336;-89
2022/10/15 07:59:37;;;;;;;4.92;1.75;;;;;;;;;;1905495;75;26224;-89
2022/10/15 08:02:04;;;;;;;5.12;1.70;;;;;;;;;;1906192;75;26528;-91
2022/10/15 08:04:33;;;;;;;4.62;1.80;;;;;;;;;;1902451;74;26183;-90
2022/10/15 08:07:01;;;;;;;1.55;1.45;;;;;;;;;;1890087;74;26322;-90
2022/10/15 08:09:28;;;;;;;1.98;1.30;;;;;;;;;;1920203;74;26199;-89
2022/10/15 08:11:55;;;;;;;2.65;1.60;;;;;;;;;;1906508;75;26703;-89
2022/10/15 08:14:22;;;;;;;3.70;1.98;;;;;;;;;;1908376;74;26741;-89
2022/10/15 08:16:50;;;;;;;4.28;1.70;;;;;;;;;;1900688;75;26751;-90
2022/10/15 08:19:17;;;;;;;3.27;1.72;;;;;;;;;;1889055;75;26179;-91
2022/10/15 08:21:44;;;;;;;5.03;1.77;;;;;;;;;;1907350;75;26279;-90
2022/10/15 08:24:12;;;;;;;3.00;1.67;;;;;;;;;;1907741;75;26293;-89
2022/10/15 08:26:39;;;;;;;2.72;1.77;;;;;;;;;;1907424;75;26313;-89
2022/10/15 08:29:06;;;;;;;3.00;1.60;;;;;;;;;;1911112;75;26170;-90
2022/10/15 08:31:34;;;;;;;3.55;1.67;;;;;;;;;;1909766;75;26728;-90
2022/10/15 08:34:04;;;;;;;3.30;1.70;;;;;;;;;;1910529;75;26303;-90
2022/10/15 08:36:31;;;;;;;3.52;1.60;;;;;;;;;;1895614;75;26211;-90
2022/10/15 08:38:59;;;;;;;1.85;1.75;;;;;;;;;;1906424;74;26294;-90
2022/10/15 08:41:33;;;;;;;1.80;1.70;;;;;;;;;;1893573;75;26771;-90
2022/10/15 08:44:01;;;;;;;1.57;1.57;;;;;;;;;;1900260;75;26747;-90
2022/10/15 08:46:30;;;;;;;2.80;1.72;;;;;;;;;;1889455;75;26352;-90
2022/10/15 08:48:58;;;;;;;3.52;1.67;;;;;;;;;;1904648;75;26256;-89
2022/10/15 08:51:27;;;;;;;1.82;1.70;;;;;;;;;;1858418;77;26669;-90
2022/10/15 08:53:56;;;;;;;3.15;1.60;;;;;;;;;;1857288;75;26281;-90
2022/10/15 08:56:38;;;;;;;1.72;1.60;;;;;;;;;;1870552;75;26804;-90
2022/10/15 08:59:18;;;;;;;1.70;1.60;;;;;;;;;;1863946;76;26233;-89
2022/10/15 09:01:50;;;;;;;1.60;1.60;;;;;;;;;;1850541;75;26296;-90
2022/10/15 09:04:22;;;;;;;1.80;1.70;;;;;;;;;;1862238;75;26624;-89
2022/10/15 09:06:50;;;;;;;1.55;1.50;;;;;;;;;;1874568;75;26238;-89
2022/10/15 09:09:19;;;;;;;1.60;1.50;;;;;;;;;;1862224;75;26199;-90
2022/10/15 09:12:03;;;;;;;1.90;1.80;;;;;;;;;;1867223;75;26387;-91
2022/10/15 09:14:41;;;;;;;1.52;1.50;;;;;;;;;;1882138;75;26188;-90
2022/10/15 09:17:15;;;;;;;1.42;1.42;;;;;;;;;;1868084;75;26194;-90
2022/10/15 09:19:44;;;;;;;1.77;1.67;;;;;;;;;;1861655;75;26745;-88
2022/10/15 09:22:12;;;;;;;1.98;1.60;;;;;;;;;;1859152;75;26242;-89
2022/10/15 09:24:40;;;;;;;1.85;1.72;;;;;;;;;;1872912;75;26187;-87
2022/10/15 09:27:21;;;;;;;1.95;1.80;;;;;;;;;;1871741;75;26368;-89
2022/10/15 09:29:50;;;;;;;1.90;1.80;;;;;;;;;;1865655;75;26243;-89
2022/10/15 09:32:30;;;;;;;2.00;1.90;;;;;;;;;;1876858;75;26207;-89
2022/10/15 09:35:02;;;;;;;1.80;1.80;;;;;;;;;;1854719;75;26739;-92
2022/10/15 09:37:31;;;;;;;1.70;1.60;;;;;;;;;;1845732;76;26829;-88
2022/10/15 09:40:16;;;;;;;1.55;1.55;;;;;;;;;;1836437;75;26264;-89
2022/10/15 09:42:44;;;;;;;1.52;1.52;;;;;;;;;;1868623;75;26316;-88
2022/10/15 09:45:13;;;;;;;1.92;1.70;;;;;;;;;;1881095;75;26638;-89
2022/10/15 09:47:42;;;;;;;1.75;1.72;;;;;;;;;;1869598;75;26659;-89
2022/10/15 09:50:10;;;;;;;4.00;1.90;;;;;;;;;;1885981;75;26400;-89
2022/10/15 09:52:45;;;;;;;1.70;1.70;;;;;;;;;;1890785;75;26237;-88
2022/10/15 09:55:23;;;;;;;1.60;1.60;;;;;;;;;;1903432;75;26605;-90
2022/10/15 09:57:52;;;;;;;1.90;1.80;;;;;;;;;;1899524;74;26718;-90
2022/10/15 10:00:19;;;;;;;1.80;1.70;;;;;;;;;;1898343;75;26640;-90
2022/10/15 10:03:06;;;;;;;1.70;1.70;;;;;;;;;;1902313;75;26219;-89
2022/10/15 10:05:35;;;;;;;2.00;1.90;;;;;;;;;;1897164;75;26295;-91
2022/10/15 10:08:10;;;;;;;1.75;1.72;;;;;;;;;;1904472;75;26640;-89
2022/10/15 10:10:38;;;;;;;1.92;1.82;;;;;;;;;;1904243;75;26183;-87
2022/10/15 10:13:07;;;;;;;1.77;1.75;;;;;;;;;;1902562;75;26179;-89
2022/10/15 10:15:35;;;;;;;1.90;1.80;;;;;;;;;;1907144;74;26232;-88
2022/10/15 10:18:05;;;;;;;1.80;1.80;;;;;;;;;;1910665;74;26716;-88
2022/10/15 10:20:32;;;;;;;1.80;1.80;;;;;;;;;;1898670;74;26771;-88
2022/10/15 10:23:01;;;;;;;1.90;1.80;;;;;;;;;;1909060;75;26244;-88
2022/10/15 10:25:41;;;;;;;2.30;2.20;;;;;;;;;;1874573;75;26304;-89
2022/10/15 10:28:13;;;;;;;2.45;2.27;;;;;;;;;;1903834;75;26665;-88
2022/10/15 10:30:57;;;;;;;2.20;2.10;;;;;;;;;;1887760;75;26265;-89
2022/10/15 10:33:29;;;;;;;2.35;2.22;;;;;;;;;;1887186;75;26300;-88
2022/10/15 10:35:56;;;;;;;2.22;2.12;;;;;;;;;;1882166;75;26707;-87
2022/10/15 10:38:31;;;;;;;2.20;2.10;;;;;;;;;;1882115;75;26526;-88
2022/10/15 10:41:04;;;;;;;2.50;2.40;;;;;;;;;;1879988;75;26177;-88
2022/10/15 10:43:29;;;;;;;2.75;2.30;;;;;;;;;;1884771;75;26255;-88
2022/10/15 10:46:11;;;;;;;2.33;2.22;;;;;;;;;;1901241;75;26208;-91
2022/10/15 10:48:40;;;;;;;2.42;2.33;;;;;;;;;;1899343;75;26757;-89
2022/10/15 10:51:18;;;;;;;2.33;2.12;;;;;;;;;;1884469;75;26241;-89
2022/10/15 10:53:50;;;;;;;2.62;2.25;;;;;;;;;;1887480;75;26266;-89
2022/10/15 10:56:19;;;;;;;2.85;2.65;;;;;;;;;;1903484;75;26246;-90
2022/10/15 10:58:46;;;;;;;2.95;2.30;;;;;;;;;;1890007;75;26246;-89
2022/10/15 11:01:13;;;;;;;3.08;2.60;;;;;;;;;;1884071;75;26774;-90
2022/10/15 11:03:42;;;;;;;2.62;2.42;;;;;;;;;;1881329;75;26190;-88
2022/10/15 11:06:20;;;;;;;2.50;2.30;;;;;;;;;;1889954;75;26191;-89
2022/10/15 11:09:06;;;;;;;3.92;2.60;;;;;;;;;;1892068;75;26278;-89
2022/10/15 11:11:37;;;;;;;2.70;2.60;;;;;;;;;;1883101;75;26202;-89
2022/10/15 11:14:06;;;;;;;2.75;2.55;;;;;;;;;;1878828;75;26747;-89
2022/10/15 11:16:35;;;;;;;2.60;2.50;;;;;;;;;;1894889;75;26230;-90
2022/10/15 11:19:13;;;;;;;2.75;2.65;;;;;;;;;;1903022;75;26232;-90
2022/10/15 11:21:42;;;;;;;2.60;2.50;;;;;;;;;;1879843;75;26706;-90
2022/10/15 11:24:11;;;;;;;2.50;2.40;;;;;;;;;;1903912;74;26600;-90
2022/10/15 11:26:49;;;;;;;4.55;3.02;;;;;;;;;;1880758;74;26257;-90
2022/10/15 11:29:24;;;;;;;2.90;2.70;;;;;;;;;;1903882;74;26653;-89
2022/10/15 11:32:01;;;;;;;3.20;2.65;;;;;;;;;;1903466;75;26234;-90
2022/10/15 11:34:48;;;;;;;2.85;2.58;;;;;;;;;;1890473;75;26265;-89
2022/10/15 11:37:20;;;;;;;2.87;2.67;;;;;;;;;;1887972;75;26684;-90
2022/10/15 11:39:50;;;;;;;2.70;2.60;;;;;;;;;;1887193;75;26250;-89
2022/10/15 11:42:31;;;;;;;3.10;2.90;;;;;;;;;;1884043;75;26313;-89
2022/10/15 11:45:17;;;;;;;3.15;2.50;;;;;;;;;;1885769;74;26219;-89
2022/10/15 11:47:49;;;;;;;8.25;2.83;;;;;;;;;;1896782;75;26309;-91
2022/10/15 11:50:21;;;;;;;2.67;2.58;;;;;;;;;;1865345;75;26289;-91
2022/10/15 11:53:06;;;;;;;2.80;2.60;;;;;;;;;;1853381;77;27387;-89
2022/10/15 11:55:38;;;;;;;2.80;2.70;;;;;;;;;;1849819;77;26246;-90
2022/10/15 11:58:07;;;;;;;2.60;2.40;;;;;;;;;;1861571;76;26317;-90
2022/10/15 12:00:36;;;;;;;5.95;2.90;;;;;;;;;;1837132;76;26265;-90
2022/10/15 12:03:05;;;;;;;3.10;2.90;;;;;;;;;;1856060;76;26195;-89
2022/10/15 12:05:36;;;;;;;3.55;2.70;;;;;;;;;;1854219;77;26312;-89
2022/10/15 12:08:04;;;;;;;3.05;2.77;;;;;;;;;;1863344;76;26794;-89
2022/10/15 12:10:39;;;;;;;2.85;2.62;;;;;;;;;;1863723;76;26246;-89
2022/10/15 12:13:14;;;;;;;3.45;2.90;;;;;;;;;;1845621;77;26256;-88
2022/10/15 12:15:59;;;;;;;3.00;2.80;;;;;;;;;;1863369;76;26257;-89
2022/10/15 12:18:28;;;;;;;3.15;2.85;;;;;;;;;;1863387;76;26361;-89
2022/10/15 12:20:57;;;;;;;3.02;2.83;;;;;;;;;;1853290;76;26312;-90
2022/10/15 12:23:37;;;;;;;2.90;2.70;;;;;;;;;;1851220;76;26741;-89
2022/10/15 12:26:06;;;;;;;2.98;2.77;;;;;;;;;;1852910;76;26361;-91
2022/10/15 12:28:34;;;;;;;3.22;3.00;;;;;;;;;;1852911;77;26266;-91
2022/10/15 12:31:03;;;;;;;3.05;2.75;;;;;;;;;;1854429;76;26359;-88
2022/10/15 12:33:31;;;;;;;2.87;2.77;;;;;;;;;;1853366;76;26245;-90
2022/10/15 12:36:01;;;;;;;2.92;2.80;;;;;;;;;;1855317;77;26250;-89
2022/10/15 12:38:35;;;;;;;3.22;3.02;;;;;;;;;;1858681;76;26253;-89
2022/10/15 12:41:05;;;;;;;3.30;3.00;;;;;;;;;;1863248;76;26726;-89
2022/10/15 12:43:33;;;;;;;3.42;2.87;;;;;;;;;;1863061;77;26690;-89
2022/10/15 12:46:02;;;;;;;3.25;2.95;;;;;;;;;;1862455;76;26616;-88
2022/10/15 12:48:31;;;;;;;2.85;2.75;;;;;;;;;;1862516;77;26321;-91
2022/10/15 12:51:18;;;;;;;4.75;3.25;;;;;;;;;;1879255;75;26278;-88
2022/10/15 12:53:47;;;;;;;6.08;3.40;;;;;;;;;;1900652;75;26247;-91
2022/10/15 12:56:19;;;;;;;3.85;3.55;;;;;;;;;;1899284;75;26543;-89
2022/10/15 12:58:53;;;;;;;6.93;3.43;;;;;;;;;;1896660;75;28240;-89
2022/10/15 13:01:22;;;;;;;3.72;3.45;;;;;;;;;;1887255;75;26381;-88
2022/10/15 13:03:51;;;;;;;4.47;3.65;;;;;;;;;;1884346;75;38467;-92
2022/10/15 13:06:22;;;;;;;4.45;3.12;;;;;;;;;;1897033;75;26362;-92
2022/10/15 13:08:51;;;;;;;4.12;3.35;;;;;;;;;;1901899;75;26237;-91
2022/10/15 13:11:26;;;;;;;3.17;2.98;;;;;;;;;;1899940;75;27045;-93
2022/10/15 13:13:54;;;;;;;3.40;3.15;;;;;;;;;;1891662;75;27059;-95
2022/10/15 13:16:22;;;;;;;3.77;2.98;;;;;;;;;;1892280;74;26736;-86
2022/10/15 13:18:51;;;;;;;3.70;3.40;;;;;;;;;;1881865;75;28050;-91
2022/10/15 13:21:18;;;;;;;8.03;3.50;;;;;;;;;;1874595;75;28073;-86
2022/10/15 13:23:46;;;;;;;3.12;2.80;;;;;;;;;;1900250;75;26244;-86
2022/10/15 13:26:21;;;;;;;3.92;3.15;;;;;;;;;;1899693;75;26288;-87
2022/10/15 13:28:49;;;;;;;3.30;3.00;;;;;;;;;;1868511;74;39177;-89
2022/10/15 13:31:22;;;;;;;3.10;2.90;;;;;;;;;;1900565;75;26238;-91
2022/10/15 13:33:50;;;;;;;3.62;3.10;;;;;;;;;;1900714;75;26502;-89
2022/10/15 13:36:22;;;;;;;3.17;2.90;;;;;;;;;;1901313;75;26313;-89
2022/10/15 13:38:57;;;;;;;3.70;3.00;;;;;;;;;;1893451;75;26251;-89
2022/10/15 13:41:28;;;;;;;3.75;2.83;;;;;;;;;;1882179;74;26222;-92
2022/10/15 13:43:59;;;;;;;2.95;2.80;;;;;;;;;;1897482;75;26296;-89
2022/10/15 13:46:26;;;;;;;3.50;3.30;;;;;;;;;;1879237;75;26801;-90
2022/10/15 13:48:57;;;;;;;2.72;2.58;;;;;;;;;;1899005;74;26256;-90
2022/10/15 13:51:25;;;;;;;2.98;2.77;;;;;;;;;;1873300;75;26827;-89
2022/10/15 13:53:53;;;;;;;3.00;2.67;;;;;;;;;;1866686;75;27362;-88
2022/10/15 13:56:25;;;;;;;3.33;2.55;;;;;;;;;;1859663;75;26195;-88
2022/10/15 13:58:53;;;;;;;3.08;2.87;;;;;;;;;;1867114;75;26249;-89
2022/10/15 14:01:21;;;;;;;3.47;3.27;;;;;;;;;;1864386;75;26331;-88
2022/10/15 14:03:52;;;;;;;3.05;2.92;;;;;;;;;;1859890;75;26734;-89
2022/10/15 14:06:24;;;;;;;3.17;2.90;;;;;;;;;;1868316;75;26787;-91
2022/10/15 14:08:53;;;;;;;2.80;2.70;;;;;;;;;;1870016;77;26318;-92
2022/10/15 14:11:20;;;;;;;5.42;2.90;;;;;;;;;;1869386;75;26278;-91
2022/10/15 14:13:49;;;;;;;3.52;3.25;;;;;;;;;;1869488;76;26831;-94
2022/10/15 14:16:34;;;;;;;2.95;2.75;;;;;;;;;;1867224;75;26374;-94
2022/10/15 14:19:06;;;;;;;3.33;3.10;;;;;;;;;;1860576;75;26382;-94
2022/10/15 14:21:34;;;;;;;4.53;3.25;;;;;;;;;;1870316;76;26752;-92
2022/10/15 14:24:06;;;;;;;2.83;2.63;;;;;;;;;;1865462;75;38477;-91
2022/10/15 14:26:34;;;;;;;2.60;2.50;;;;;;;;;;1861816;75;26282;-91
2022/10/15 14:29:01;;;;;;;4.45;2.42;;;;;;;;;;1862150;76;26849;-92
2022/10/15 14:31:36;;;;;;;5.17;2.90;;;;;;;;;;1857471;75;26994;-92
2022/10/15 14:34:04;;;;;;;2.70;2.50;;;;;;;;;;1846528;75;28099;-88
2022/10/15 14:36:33;;;;;;;2.72;2.52;;;;;;;;;;1860647;75;26229;-92
2022/10/15 14:39:18;;;;;;;2.35;2.25;;;;;;;;;;1862221;75;26805;-92
2022/10/15 14:41:59;;;;;;;4.90;2.70;;;;;;;;;;1865451;75;26261;-91
2022/10/15 14:44:28;;;;;;;2.50;2.30;;;;;;;;;;1868206;76;26268;-90
2022/10/15 14:47:00;;;;;;;4.55;2.50;;;;;;;;;;1848617;75;26257;-93
2022/10/15 14:49:32;;;;;;;2.45;2.35;;;;;;;;;;1860694;75;26276;-90
2022/10/15 14:52:01;;;;;;;2.42;2.33;;;;;;;;;;1894312;75;26270;-92
2022/10/15 14:54:30;;;;;;;2.58;2.37;;;;;;;;;;1902394;75;26236;-88
2022/10/15 14:56:57;;;;;;;2.47;2.37;;;;;;;;;;1900466;75;26243;-89
2022/10/15 14:59:26;;;;;;;2.90;2.60;;;;;;;;;;1902386;75;26671;-93